Smolan, Kansas
Current Conditions -  °F | °C
As of 1:53 PM on Sunday 23 Nov 2014 (Local Time) from KSLN Reporting Station
Light Rain Light Rain  
Wind Chill: 35°   Ceiling: 2800
Heat Index: 45°   Visibility: 6mi
Dew Point: 38°   Wind: 30mph
Humidity: 76%   Direction: 340°NNW
Pressure: 29.5"   Gusts: 38mph
Location:  38.5722°N, 97.6479°W
Report Text: KSLN 231953Z 34026G33KT 6SM -RA BKN028 OVC035 07/03 A2950 RMK AO2 PK WND 35044/1857 RAB00 SLP989 P0003 T00720033
Loading
Personal Weather Stations






























Interactive Weather Map New forecast layout! Learn more

10-Day Weather Forecast

Advertisements
Track Severe Weather on mobile